Time;durP1;ratioP1;P1;durP2;ratioP2;P2;SDS_P1;SDS_P2;PMS_P1;PMS_P2;Temp;Humidity;BMP_temperature;BMP_pressure;BME280_temperature;BME280_humidity;BME280_pressure;Samples;Min_cycle;Max_cycle;Signal;HPM_P1;HPM_P2
2021/08/30 03:47:33;;;;;;;1.15;0.75;;;;;;;;;;4905774;23;20588;-83
2021/08/30 03:50:02;;;;;;;2.87;0.90;;;;;;;;;;4849378;29;20049;-83
2021/08/30 03:52:27;;;;;;;2.20;0.88;;;;;;;;;;4845480;29;20029;-83
2021/08/30 03:54:52;;;;;;;3.93;1.00;;;;;;;;;;4821674;29;20128;-82
2021/08/30 03:57:18;;;;;;;1.87;0.90;;;;;;;;;;4844439;29;20108;-83
2021/08/30 03:59:56;;;;;;;2.33;1.00;;;;;;;;;;4846176;29;20501;-83
2021/08/30 04:02:23;;;;;;;3.50;1.63;;;;;;;;;;4830704;29;20483;-82
2021/08/30 04:04:48;;;;;;;2.88;1.00;;;;;;;;;;4830939;29;20026;-83
2021/08/30 04:07:13;;;;;;;1.70;1.03;;;;;;;;;;4830647;29;20036;-83
2021/08/30 04:09:39;;;;;;;1.90;1.03;;;;;;;;;;4846946;29;20180;-82
2021/08/30 04:12:04;;;;;;;3.90;0.90;;;;;;;;;;4848936;29;20128;-83
2021/08/30 04:14:30;;;;;;;2.03;0.80;;;;;;;;;;4849125;29;20401;-83
2021/08/30 04:16:55;;;;;;;1.77;0.70;;;;;;;;;;4848892;29;20028;-81
2021/08/30 04:19:21;;;;;;;0.70;0.40;;;;;;;;;;4849042;29;20401;-83
2021/08/30 04:21:46;;;;;;;0.77;0.50;;;;;;;;;;4833551;29;20121;-83
2021/08/30 04:24:11;;;;;;;2.13;0.50;;;;;;;;;;4848238;29;20451;-83
2021/08/30 04:26:37;;;;;;;1.67;0.50;;;;;;;;;;4848624;29;20289;-83
2021/08/30 04:29:02;;;;;;;1.07;0.60;;;;;;;;;;4848905;29;20256;-82
2021/08/30 04:31:28;;;;;;;0.90;0.47;;;;;;;;;;4848578;29;20506;-83
2021/08/30 04:33:53;;;;;;;0.90;0.40;;;;;;;;;;4848740;29;20029;-83
2021/08/30 04:36:19;;;;;;;1.47;0.40;;;;;;;;;;4848606;29;20019;-83
2021/08/30 04:38:44;;;;;;;2.17;0.70;;;;;;;;;;4848685;29;20112;-83
2021/08/30 04:41:11;;;;;;;1.50;0.70;;;;;;;;;;4848326;29;20695;-83
2021/08/30 04:43:37;;;;;;;1.77;1.02;;;;;;;;;;4833439;29;20474;-82
2021/08/30 04:46:02;;;;;;;1.93;0.90;;;;;;;;;;4848288;29;20039;-83
2021/08/30 04:48:27;;;;;;;1.47;0.90;;;;;;;;;;4848523;29;20033;-82
2021/08/30 04:50:53;;;;;;;3.30;1.60;;;;;;;;;;4848158;29;20514;-82
2021/08/30 04:53:18;;;;;;;4.50;2.00;;;;;;;;;;4847861;29;20111;-82
2021/08/30 04:55:43;;;;;;;3.87;2.40;;;;;;;;;;4848149;29;20379;-82
2021/08/30 04:58:11;;;;;;;4.80;2.20;;;;;;;;;;4848340;29;20116;-82
2021/08/30 05:00:37;;;;;;;5.25;1.90;;;;;;;;;;4848926;29;20039;-82
2021/08/30 05:03:02;;;;;;;3.83;2.10;;;;;;;;;;4847810;29;20029;-82
2021/08/30 05:05:27;;;;;;;3.83;1.93;;;;;;;;;;4863504;29;20033;-82
2021/08/30 05:07:53;;;;;;;3.53;1.60;;;;;;;;;;4845060;29;20021;-82
2021/08/30 05:10:18;;;;;;;4.83;2.00;;;;;;;;;;4843973;29;20127;-82
2021/08/30 05:12:44;;;;;;;3.00;1.53;;;;;;;;;;4844529;29;20070;-81
2021/08/30 05:15:09;;;;;;;2.13;1.00;;;;;;;;;;4829470;29;20025;-82
2021/08/30 05:17:35;;;;;;;1.83;0.97;;;;;;;;;;4844698;29;20113;-82
2021/08/30 05:20:00;;;;;;;1.30;0.50;;;;;;;;;;4814623;29;20123;-81
2021/08/30 05:22:25;;;;;;;2.77;0.70;;;;;;;;;;4829383;29;20170;-82
2021/08/30 05:24:51;;;;;;;1.03;0.47;;;;;;;;;;4839185;29;20120;-84
2021/08/30 05:27:16;;;;;;;2.43;0.70;;;;;;;;;;4848127;29;20462;-83
2021/08/30 05:29:41;;;;;;;0.97;0.50;;;;;;;;;;4847840;29;20040;-84
2021/08/30 05:32:07;;;;;;;0.80;0.43;;;;;;;;;;4847420;29;20040;-83
2021/08/30 05:34:32;;;;;;;0.90;0.47;;;;;;;;;;4847887;29;20076;-84
2021/08/30 05:36:58;;;;;;;1.53;0.70;;;;;;;;;;4844489;29;20029;-83
2021/08/30 05:39:23;;;;;;;3.13;1.00;;;;;;;;;;4829210;29;20031;-84
2021/08/30 05:41:48;;;;;;;1.90;0.77;;;;;;;;;;4829325;29;20482;-83
2021/08/30 05:44:14;;;;;;;2.00;0.80;;;;;;;;;;4844222;29;20025;-84
2021/08/30 05:46:39;;;;;;;1.43;0.60;;;;;;;;;;4844232;29;20108;-84
2021/08/30 05:49:04;;;;;;;1.40;0.70;;;;;;;;;;4844342;29;20049;-86
2021/08/30 05:51:30;;;;;;;1.63;0.70;;;;;;;;;;4825366;29;20067;-83
2021/08/30 05:53:55;;;;;;;1.30;0.80;;;;;;;;;;4832156;29;20120;-83
2021/08/30 05:56:20;;;;;;;2.53;1.00;;;;;;;;;;4847220;29;20107;-83
2021/08/30 05:58:46;;;;;;;3.20;1.50;;;;;;;;;;4847293;29;20116;-83
2021/08/30 06:01:11;;;;;;;8.03;3.90;;;;;;;;;;4847239;29;20119;-84
2021/08/30 06:03:37;;;;;;;7.23;3.43;;;;;;;;;;4847172;29;20120;-83
2021/08/30 06:06:02;;;;;;;5.43;2.27;;;;;;;;;;4846303;29;20053;-83
2021/08/30 06:08:28;;;;;;;4.07;1.90;;;;;;;;;;4847160;29;20044;-84
2021/08/30 06:10:55;;;;;;;4.13;1.80;;;;;;;;;;4847063;29;20101;-83
2021/08/30 06:13:21;;;;;;;3.35;1.60;;;;;;;;;;4847701;29;20062;-86
2021/08/30 06:23:24;;;;;;;2.50;1.27;;;;;;;;;;4895471;29;20243;-83
2021/08/30 06:25:53;;;;;;;2.73;1.43;;;;;;;;;;4850538;29;20024;-85
2021/08/30 06:28:18;;;;;;;2.45;1.20;;;;;;;;;;4850521;29;20032;-84
2021/08/30 06:30:44;;;;;;;1.93;0.80;;;;;;;;;;4865383;29;20116;-85
2021/08/30 06:33:09;;;;;;;6.43;3.60;;;;;;;;;;4849656;29;20025;-84
2021/08/30 06:35:37;;;;;;;3.47;1.80;;;;;;;;;;4849882;29;20064;-85
2021/08/30 06:38:02;;;;;;;3.33;1.40;;;;;;;;;;4865240;29;20017;-84
2021/08/30 06:40:27;;;;;;;2.37;1.30;;;;;;;;;;4865068;29;20025;-85
2021/08/30 06:42:53;;;;;;;2.67;1.50;;;;;;;;;;4865065;29;20035;-85
2021/08/30 06:45:22;;;;;;;2.97;1.37;;;;;;;;;;4880236;29;20093;-85
2021/08/30 09:28:26;;;;;;;0.20;0.10;;;;;;;;;;4897058;29;20048;-87
2021/08/30 09:30:54;;;;;;;0.38;0.20;;;;;;;;;;4878883;29;20037;-83
2021/08/30 09:33:20;;;;;;;0.20;0.20;;;;;;;;;;4866047;29;20032;-82
2021/08/30 09:35:55;;;;;;;0.83;0.10;;;;;;;;;;4864137;29;20547;-82
2021/08/30 09:38:20;;;;;;;0.10;0.10;;;;;;;;;;4865606;29;20050;-82
2021/08/30 09:40:45;;;;;;;0.30;0.10;;;;;;;;;;4863835;29;20572;-82
2021/08/30 09:43:17;;;;;;;0.20;0.10;;;;;;;;;;4846820;29;20041;-82
2021/08/30 09:45:44;;;;;;;0.10;0.10;;;;;;;;;;4862080;29;20437;-82
2021/08/30 09:48:12;;;;;;;0.13;0.13;;;;;;;;;;4862189;29;20112;-82
2021/08/30 09:50:42;;;;;;;0.25;0.10;;;;;;;;;;4881391;29;20052;-83
2021/08/30 09:59:39;;;;;;;0.20;0.20;;;;;;;;;;4916694;23;20047;-89
2021/08/30 10:02:29;;;;;;;2.45;0.20;;;;;;;;;;4900666;29;20529;-89
2021/08/30 10:09:01;;;;;;;0.47;0.20;;;;;;;;;;4935582;29;20071;-88
2021/08/30 10:15:08;;;;;;;0.90;0.20;;;;;;;;;;4820589;29;20032;-90
2021/08/30 10:17:45;;;;;;;1.52;0.30;;;;;;;;;;4869040;29;20490;-88
2021/08/30 10:20:17;;;;;;;0.40;0.30;;;;;;;;;;4879770;29;20028;-85
2021/08/30 10:22:42;;;;;;;0.57;0.40;;;;;;;;;;4862871;29;20025;-85
2021/08/30 10:25:21;;;;;;;0.40;0.30;;;;;;;;;;4848310;29;20036;-84
2021/08/30 10:28:01;;;;;;;0.85;0.40;;;;;;;;;;4879070;29;20496;-85
2021/08/30 10:30:28;;;;;;;0.73;0.30;;;;;;;;;;4879242;29;20036;-85
2021/08/30 10:32:59;;;;;;;0.40;0.38;;;;;;;;;;4878510;29;20615;-85
2021/08/30 10:35:27;;;;;;;1.08;0.50;;;;;;;;;;4879561;29;20044;-85
2021/08/30 10:38:03;;;;;;;0.52;0.30;;;;;;;;;;4891222;29;20027;-85
2021/08/30 10:40:36;;;;;;;0.60;0.38;;;;;;;;;;4878824;29;20032;-85
2021/08/30 10:43:14;;;;;;;0.60;0.43;;;;;;;;;;4875924;29;20116;-85
2021/08/30 10:45:58;;;;;;;0.50;0.40;;;;;;;;;;4851809;29;20401;-85
2021/08/30 10:48:33;;;;;;;1.23;0.57;;;;;;;;;;4882415;29;20025;-86
2021/08/30 10:50:59;;;;;;;2.55;0.47;;;;;;;;;;4890992;29;20123;-85
2021/08/30 10:53:29;;;;;;;0.70;0.50;;;;;;;;;;4863032;29;20484;-85
2021/08/30 10:56:02;;;;;;;0.88;0.30;;;;;;;;;;4910861;29;20024;-85
2021/08/30 10:58:27;;;;;;;0.68;0.43;;;;;;;;;;4893622;29;20080;-85
2021/08/30 11:01:12;;;;;;;4.53;0.50;;;;;;;;;;4875446;29;20036;-85
2021/08/30 11:03:39;;;;;;;1.77;0.40;;;;;;;;;;4894136;29;20028;-85
2021/08/30 11:06:11;;;;;;;1.50;0.50;;;;;;;;;;4850207;29;20024;-83
2021/08/30 11:08:41;;;;;;;0.60;0.40;;;;;;;;;;4908930;29;20410;-83
2021/08/30 11:11:25;;;;;;;0.30;0.30;;;;;;;;;;4878659;29;20131;-83
2021/08/30 11:14:00;;;;;;;1.58;0.45;;;;;;;;;;4895460;29;20028;-83
2021/08/30 11:16:26;;;;;;;1.00;0.50;;;;;;;;;;4863067;29;20407;-83
2021/08/30 11:19:02;;;;;;;0.70;0.40;;;;;;;;;;4861031;29;20025;-83
2021/08/30 11:21:50;;;;;;;1.00;0.50;;;;;;;;;;4880694;29;20299;-83
2021/08/30 11:24:21;;;;;;;1.15;0.65;;;;;;;;;;4849458;29;20041;-83
2021/08/30 11:26:53;;;;;;;0.88;0.68;;;;;;;;;;4909063;29;20029;-83
2021/08/30 11:29:18;;;;;;;1.60;0.60;;;;;;;;;;4893697;29;20487;-83
2021/08/30 11:31:43;;;;;;;1.57;0.60;;;;;;;;;;4867426;29;20116;-85
2021/08/30 11:34:28;;;;;;;0.90;0.50;;;;;;;;;;4845692;29;20491;-85
2021/08/30 11:36:54;;;;;;;1.15;0.60;;;;;;;;;;4893582;29;20032;-85
2021/08/30 11:39:20;;;;;;;2.00;0.57;;;;;;;;;;4876461;29;20029;-84
2021/08/30 11:42:06;;;;;;;2.93;0.70;;;;;;;;;;4859159;29;20064;-83
2021/08/30 11:44:33;;;;;;;0.68;0.52;;;;;;;;;;4877397;29;20538;-83
2021/08/30 11:46:59;;;;;;;0.70;0.47;;;;;;;;;;4892782;29;20089;-85
2021/08/30 11:49:25;;;;;;;;;;;;;;;;;;4893915;29;20113;-85
2021/08/30 11:51:51;;;;;;;0.85;0.40;;;;;;;;;;4893214;29;19939;-85
2021/08/30 11:54:36;;;;;;;1.02;0.50;;;;;;;;;;4861935;29;20043;-85
2021/08/30 11:57:21;;;;;;;0.80;0.50;;;;;;;;;;4862812;29;20056;-85
2021/08/30 11:59:56;;;;;;;0.75;0.35;;;;;;;;;;4893271;29;20048;-85
2021/08/30 12:02:21;;;;;;;0.43;0.40;;;;;;;;;;4890383;29;20039;-85
2021/08/30 12:04:47;;;;;;;0.53;0.40;;;;;;;;;;4878365;29;20041;-85
2021/08/30 12:07:14;;;;;;;0.30;0.30;;;;;;;;;;4866072;29;20063;-85
2021/08/30 12:09:52;;;;;;;0.80;0.50;;;;;;;;;;4897024;29;20032;-84
2021/08/30 12:12:19;;;;;;;0.68;0.45;;;;;;;;;;4910697;29;20037;-84
2021/08/30 12:15:09;;;;;;;0.85;0.40;;;;;;;;;;4902325;29;20064;-85
2021/08/30 12:17:36;;;;;;;1.20;0.50;;;;;;;;;;4877954;29;20044;-85
2021/08/30 12:20:06;;;;;;;1.00;0.50;;;;;;;;;;4878748;29;20067;-87
2021/08/30 12:22:54;;;;;;;1.58;0.60;;;;;;;;;;4880288;29;20029;-88
2021/08/30 12:25:28;;;;;;;0.98;0.60;;;;;;;;;;4897064;29;20028;-85
2021/08/30 12:28:05;;;;;;;0.77;0.40;;;;;;;;;;4880760;29;20025;-88
2021/08/30 12:44:31;;;;;;;0.90;0.50;;;;;;;;;;4835796;29;20478;-86
2021/08/30 12:47:16;;;;;;;1.42;0.60;;;;;;;;;;4875748;29;20036;-86
2021/08/30 12:49:42;;;;;;;1.13;0.80;;;;;;;;;;4848105;29;20514;-85
2021/08/30 12:52:07;;;;;;;2.73;1.10;;;;;;;;;;4880733;29;20028;-87
2021/08/30 12:54:33;;;;;;;2.60;1.30;;;;;;;;;;4886937;29;20505;-86
2021/08/30 13:38:11;;;;;;;0.80;0.50;;;;;;;;;;4765074;30;20098;-86
2021/08/30 13:41:51;;;;;;;;;;;;;;;;;;;;;
2021/08/30 15:15:42;;;;;;;1.02;0.40;;;;;;;;;;4876771;29;20083;-85
2021/08/30 15:18:57;;;;;;;0.88;0.60;;;;;;;;;;4878666;29;20028;-86
2021/08/30 15:41:35;;;;;;;0.82;0.55;;;;;;;;;;4898501;29;20055;-85
2021/08/30 17:22:23;;;;;;;1.10;0.60;;;;;;;;;;4888804;29;20050;-89
2021/08/30 17:52:25;;;;;;;0.88;0.60;;;;;;;;;;4851496;29;20053;-87
2021/08/30 18:41:55;;;;;;;3.22;1.52;;;;;;;;;;4887454;29;20060;-84
2021/08/30 18:44:20;;;;;;;2.90;1.70;;;;;;;;;;4846298;29;20028;-84
2021/08/30 18:46:47;;;;;;;3.37;1.77;;;;;;;;;;4831040;29;20132;-84
2021/08/30 18:49:12;;;;;;;;;;;;;;;;;;4832812;29;20060;-84
2021/08/30 18:51:38;;;;;;;2.77;1.50;;;;;;;;;;4864391;29;19946;-83
2021/08/30 18:54:03;;;;;;;3.47;1.43;;;;;;;;;;4849422;29;20029;-85
2021/08/30 18:56:28;;;;;;;2.93;1.70;;;;;;;;;;4848604;29;20032;-84
2021/08/30 18:58:54;;;;;;;2.70;1.63;;;;;;;;;;4849056;29;20141;-83
2021/08/30 19:01:19;;;;;;;3.47;1.70;;;;;;;;;;4849059;29;20024;-85
2021/08/30 19:03:44;;;;;;;2.83;1.53;;;;;;;;;;4841083;29;20479;-84
2021/08/30 19:06:10;;;;;;;2.73;1.40;;;;;;;;;;4834364;29;20047;-84
2021/08/30 19:08:35;;;;;;;6.30;1.80;;;;;;;;;;4845818;29;20112;-84
2021/08/30 19:11:01;;;;;;;3.03;1.60;;;;;;;;;;4845694;29;20029;-84
2021/08/30 19:13:27;;;;;;;2.50;1.33;;;;;;;;;;4845708;29;20093;-83
2021/08/30 19:15:53;;;;;;;4.90;1.80;;;;;;;;;;4845896;29;20056;-83
2021/08/30 19:18:18;;;;;;;5.17;1.70;;;;;;;;;;4845579;29;20047;-84
2021/08/30 19:20:44;;;;;;;2.73;1.63;;;;;;;;;;4845158;29;20376;-84
2021/08/30 19:23:09;;;;;;;3.30;1.70;;;;;;;;;;4845645;29;20123;-84
2021/08/30 19:25:35;;;;;;;5.13;2.00;;;;;;;;;;4843829;29;20555;-84
2021/08/30 19:28:01;;;;;;;2.50;1.50;;;;;;;;;;4845508;29;20036;-83
2021/08/30 19:30:26;;;;;;;3.63;2.10;;;;;;;;;;4845684;29;20033;-84
2021/08/30 19:32:54;;;;;;;4.37;1.90;;;;;;;;;;4845484;29;20112;-84
2021/08/30 19:35:20;;;;;;;4.20;1.83;;;;;;;;;;4830175;29;20025;-84
2021/08/30 19:37:47;;;;;;;4.28;2.10;;;;;;;;;;4846053;29;20096;-83
2021/08/30 19:40:13;;;;;;;3.92;2.15;;;;;;;;;;4845548;29;20068;-84
2021/08/30 19:42:38;;;;;;;3.88;1.88;;;;;;;;;;4845458;29;20088;-84
2021/08/30 19:45:05;;;;;;;3.57;1.90;;;;;;;;;;4845513;29;20037;-84
2021/08/30 19:47:31;;;;;;;3.58;1.58;;;;;;;;;;4845588;29;20021;-83
2021/08/30 19:49:56;;;;;;;3.17;1.70;;;;;;;;;;4845349;29;20543;-84
2021/08/30 19:52:22;;;;;;;3.70;1.83;;;;;;;;;;4845469;29;20124;-84
2021/08/30 19:54:47;;;;;;;3.63;2.10;;;;;;;;;;4845418;29;20663;-84
2021/08/30 19:57:13;;;;;;;3.30;1.60;;;;;;;;;;4845711;29;20567;-85
2021/08/30 19:59:39;;;;;;;3.00;1.73;;;;;;;;;;4845220;29;20689;-83
2021/08/30 20:02:04;;;;;;;3.28;1.67;;;;;;;;;;4845577;29;20062;-84
2021/08/30 20:04:30;;;;;;;3.43;1.80;;;;;;;;;;4853556;29;20060;-84
2021/08/30 20:06:55;;;;;;;4.40;2.00;;;;;;;;;;4848366;29;20182;-85
2021/08/30 20:09:21;;;;;;;3.10;1.70;;;;;;;;;;4848408;29;20056;-83
2021/08/30 20:11:46;;;;;;;3.50;1.60;;;;;;;;;;4848151;29;20128;-84
2021/08/30 20:14:14;;;;;;;4.03;1.80;;;;;;;;;;4848250;29;20123;-84
2021/08/30 20:16:39;;;;;;;5.85;2.10;;;;;;;;;;4848686;29;20391;-85
2021/08/30 20:19:04;;;;;;;4.60;2.00;;;;;;;;;;4848108;29;20033;-85
2021/08/30 20:21:30;;;;;;;4.63;2.40;;;;;;;;;;4863690;29;20099;-84
2021/08/30 20:23:56;;;;;;;4.63;2.08;;;;;;;;;;4849090;29;20056;-85
2021/08/30 20:26:21;;;;;;;4.10;1.90;;;;;;;;;;4849204;29;20120;-84
2021/08/30 20:28:50;;;;;;;4.23;2.00;;;;;;;;;;4851380;29;20036;-85
2021/08/30 20:31:16;;;;;;;4.88;2.30;;;;;;;;;;4845006;29;20052;-84
2021/08/30 20:33:43;;;;;;;8.57;2.53;;;;;;;;;;4849583;29;20047;-84
2021/08/30 20:36:09;;;;;;;4.90;2.30;;;;;;;;;;4852165;29;20032;-85
2021/08/30 20:38:34;;;;;;;;;;;;;;;;;;4852324;29;20028;-84
2021/08/30 20:41:02;;;;;;;5.00;2.57;;;;;;;;;;4882266;29;19911;-84
2021/08/30 20:43:27;;;;;;;4.70;2.55;;;;;;;;;;4852045;29;20285;-84
2021/08/30 20:45:53;;;;;;;6.27;2.53;;;;;;;;;;4841832;29;20184;-84
2021/08/30 20:48:18;;;;;;;5.20;2.80;;;;;;;;;;4851309;29;20029;-85
2021/08/30 20:50:43;;;;;;;4.73;2.70;;;;;;;;;;4851246;29;20029;-84
2021/08/30 20:53:09;;;;;;;5.07;2.97;;;;;;;;;;4866756;29;20025;-85
2021/08/30 20:55:34;;;;;;;6.90;3.10;;;;;;;;;;4845407;29;20029;-83
2021/08/30 20:57:59;;;;;;;6.10;3.40;;;;;;;;;;4832654;29;20021;-84
